Venus Seven — H9RN — position and weather

sailwx.info

Track history (hours):
 
Tides and Currents Weather Stations Pressure Air Temp Water Temp Dewpoint Dewpoint Depression Visibility Wind Speed Wind Dir Waves Ship Positions

Venus Seven

Last reported at 2016-Jul-26 16:18 UTC. Time now 2016-Jul-28 20:10 UTC.
Position N 33°60' E 134°55'.

Length 93 m; draft 6 m.

Type: Cargo ship. MMSI: 353405000.

Date/timePositionNaut miles runAvg speedWind from/ knotsBaromVisibWave heightAir tempDewpointWater temp
2016-Jul-26 16:18N 33°60' E 134°55'912.5
2016-Jul-26 15:33N 34°09' E 134°57'1212.0
2016-Jul-26 14:33N 34°21' E 134°59'1212.3
2016-Jul-26 13:33N 34°33' E 135°03'9 8.9
2016-Jul-26 12:31N 34°37' E 134°53'4 0.2
2016-Jul-25 09:05N 34°38' E 134°58'510.2
2016-Jul-25 08:33N 34°36' E 135°04'1212.2
2016-Jul-25 07:33N 34°37' E 135°19'5 4.8
2016-Jul-25 06:33N 34°38' E 135°25'0 0.0
2016-Jul-25 05:27N 34°38' E 135°25'0 0.0
2016-Jul-25 04:27N 34°38' E 135°25'0 0.0
2016-Jul-25 03:33N 34°38' E 135°25'0 0.0
2016-Jul-25 02:33N 34°38' E 135°25'0 0.0
2016-Jul-25 01:27N 34°38' E 135°25'0 0.0
2016-Jul-25 00:27N 34°38' E 135°25'0 0.0
2016-Jul-24 23:33N 34°38' E 135°25'0 0.0
2016-Jul-24 22:33N 34°38' E 135°25'0 0.0
2016-Jul-24 21:33N 34°38' E 135°25'0 0.0
2016-Jul-24 20:33N 34°38' E 135°25'0 0.0
2016-Jul-24 19:33N 34°38' E 135°25'0 0.0
2016-Jul-24 18:27N 34°38' E 135°25'0 0.0
2016-Jul-24 17:33N 34°38' E 135°25'0 0.0
2016-Jul-24 16:33N 34°38' E 135°25'0 0.0
2016-Jul-24 15:33N 34°38' E 135°25'0 0.0
2016-Jul-24 14:33N 34°38' E 135°25'0 0.0
2016-Jul-24 13:32N 34°38' E 135°25'0 0.0
2016-Jul-24 12:32N 34°38' E 135°25'0 0.0
2016-Jul-24 11:32N 34°38' E 135°25'0 0.0
2016-Jul-24 10:26N 34°38' E 135°25'0 0.0
2016-Jul-24 09:32N 34°38' E 135°25'0 0.0
2016-Jul-24 08:32N 34°38' E 135°25'0 0.0
2016-Jul-24 07:26N 34°38' E 135°25'0 0.0
2016-Jul-24 06:32N 34°38' E 135°25'0 0.0
2016-Jul-24 05:32N 34°38' E 135°25'0 0.0
2016-Jul-24 04:32N 34°38' E 135°25'0 0.0
2016-Jul-24 03:32N 34°38' E 135°25'0 0.0
2016-Jul-24 02:26N 34°38' E 135°25'0 0.0
2016-Jul-24 01:26N 34°38' E 135°25'0 0.0
2016-Jul-24 00:32N 34°38' E 135°25'0 0.0
2016-Jul-23 23:32N 34°38' E 135°25'0 0.0
2016-Jul-23 22:32N 34°38' E 135°25'0 0.0
2016-Jul-23 21:32N 34°38' E 135°25'0 0.0
2016-Jul-23 20:32N 34°38' E 135°25'0 0.0
2016-Jul-23 19:32N 34°38' E 135°25'0 0.0
2016-Jul-23 18:31N 34°38' E 135°25'0 0.0
2016-Jul-23 17:25N 34°38' E 135°25'0 0.0
2016-Jul-23 16:31N 34°38' E 135°25'0 0.0
2016-Jul-23 15:31N 34°38' E 135°25'0 0.0
2016-Jul-23 14:31N 34°38' E 135°25'0 0.0
2016-Jul-23 13:31N 34°38' E 135°25'0 0.0
2016-Jul-23 12:13N 34°38' E 135°25'0 0.0
2016-Jul-23 11:31N 34°38' E 135°25'0 0.0
2016-Jul-23 10:31N 34°38' E 135°25'0 0.0
2016-Jul-23 09:31N 34°38' E 135°25'0 0.0
2016-Jul-23 08:25N 34°38' E 135°25'0 0.0
2016-Jul-23 07:31N 34°38' E 135°25'0 0.0
2016-Jul-23 06:30N 34°38' E 135°25'0 0.0
2016-Jul-23 04:30N 34°38' E 135°25'0 0.0
2016-Jul-23 03:30N 34°38' E 135°25'0 0.0
2016-Jul-23 02:30N 34°38' E 135°25'0 0.0
2016-Jul-23 01:18N 34°38' E 135°25'0 0.0
2016-Jul-23 00:30N 34°38' E 135°25'0 0.0
2016-Jul-22 23:30N 34°38' E 135°25'0 0.0
2016-Jul-22 22:30N 34°38' E 135°25'2 2.0
2016-Jul-22 21:30N 34°37' E 135°23'0 0.1
2016-Jul-22 20:30N 34°37' E 135°23'0 0.0
2016-Jul-22 19:06N 34°37' E 135°23'0 0.0
2016-Jul-22 18:18N 34°37' E 135°23'0 0.0
2016-Jul-22 17:24N 34°37' E 135°23'0 0.0
2016-Jul-22 16:12N 34°37' E 135°23'0 0.0
2016-Jul-22 15:30N 34°37' E 135°23'0 0.0
2016-Jul-22 14:30N 34°37' E 135°23'6 5.8
2016-Jul-22 13:33N 34°36' E 135°16'1212.1
2016-Jul-22 12:33N 34°37' E 135°02'  
2016-Jul-17 13:32N 22°45' E 120°09'1111.6
2016-Jul-17 12:33N 22°37' E 120°17'0 0.1
2016-Jul-17 11:29N 22°37' E 120°17'0 0.0
2016-Jul-17 10:29N 22°37' E 120°17'0 0.0
2016-Jul-17 09:23N 22°37' E 120°17'0 0.0
2016-Jul-17 08:26N 22°37' E 120°17'0 0.0
2016-Jul-17 07:26N 22°37' E 120°17'0 0.0
2016-Jul-17 06:32N 22°37' E 120°17'0 0.0
2016-Jul-17 04:32N 22°37' E 120°17'0 0.0
2016-Jul-17 03:26N 22°37' E 120°17'0 0.0
2016-Jul-17 02:32N 22°37' E 120°17'0 0.0
2016-Jul-17 01:32N 22°37' E 120°17'1 1.3
2016-Jul-17 00:33N 22°37' E 120°16'1111.3
2016-Jul-16 23:33N 22°45' E 120°07'  
Track history (hours):
 
Tides and Currents Weather Stations Pressure Air Temp Water Temp Dewpoint Dewpoint Depression Visibility Wind Speed Wind Dir Waves Ship Positions

Venus Seven

Last reported at 2016-Jul-26 16:18 UTC. Time now 2016-Jul-28 20:10 UTC.
Position N 33°60' E 134°55'.

Length 93 m; draft 6 m.

Type: Cargo ship. MMSI: 353405000.

Date/timePositionNaut miles runAvg speedWind from/ knotsBaromVisibWave heightAir tempDewpointWater temp
2016-Jul-26 16:18N 33°60' E 134°55'912.5
2016-Jul-26 15:33N 34°09' E 134°57'1212.0
2016-Jul-26 14:33N 34°21' E 134°59'1212.3
2016-Jul-26 13:33N 34°33' E 135°03'9 8.9
2016-Jul-26 12:31N 34°37' E 134°53'4 0.2
2016-Jul-25 09:05N 34°38' E 134°58'510.2
2016-Jul-25 08:33N 34°36' E 135°04'1212.2
2016-Jul-25 07:33N 34°37' E 135°19'5 4.8
2016-Jul-25 06:33N 34°38' E 135°25'0 0.0
2016-Jul-25 05:27N 34°38' E 135°25'0 0.0
2016-Jul-25 04:27N 34°38' E 135°25'0 0.0
2016-Jul-25 03:33N 34°38' E 135°25'0 0.0
2016-Jul-25 02:33N 34°38' E 135°25'0 0.0
2016-Jul-25 01:27N 34°38' E 135°25'0 0.0
2016-Jul-25 00:27N 34°38' E 135°25'0 0.0
2016-Jul-24 23:33N 34°38' E 135°25'0 0.0
2016-Jul-24 22:33N 34°38' E 135°25'0 0.0
2016-Jul-24 21:33N 34°38' E 135°25'0 0.0
2016-Jul-24 20:33N 34°38' E 135°25'0 0.0
2016-Jul-24 19:33N 34°38' E 135°25'0 0.0
2016-Jul-24 18:27N 34°38' E 135°25'0 0.0
2016-Jul-24 17:33N 34°38' E 135°25'0 0.0
2016-Jul-24 16:33N 34°38' E 135°25'0 0.0
2016-Jul-24 15:33N 34°38' E 135°25'0 0.0
2016-Jul-24 14:33N 34°38' E 135°25'0 0.0
2016-Jul-24 13:32N 34°38' E 135°25'0 0.0
2016-Jul-24 12:32N 34°38' E 135°25'0 0.0
2016-Jul-24 11:32N 34°38' E 135°25'0 0.0
2016-Jul-24 10:26N 34°38' E 135°25'0 0.0
2016-Jul-24 09:32N 34°38' E 135°25'0 0.0
2016-Jul-24 08:32N 34°38' E 135°25'0 0.0
2016-Jul-24 07:26N 34°38' E 135°25'0 0.0
2016-Jul-24 06:32N 34°38' E 135°25'0 0.0
2016-Jul-24 05:32N 34°38' E 135°25'0 0.0
2016-Jul-24 04:32N 34°38' E 135°25'0 0.0
2016-Jul-24 03:32N 34°38' E 135°25'0 0.0
2016-Jul-24 02:26N 34°38' E 135°25'0 0.0
2016-Jul-24 01:26N 34°38' E 135°25'0 0.0
2016-Jul-24 00:32N 34°38' E 135°25'0 0.0
2016-Jul-23 23:32N 34°38' E 135°25'0 0.0
2016-Jul-23 22:32N 34°38' E 135°25'0 0.0
2016-Jul-23 21:32N 34°38' E 135°25'0 0.0
2016-Jul-23 20:32N 34°38' E 135°25'0 0.0
2016-Jul-23 19:32N 34°38' E 135°25'0 0.0
2016-Jul-23 18:31N 34°38' E 135°25'0 0.0
2016-Jul-23 17:25N 34°38' E 135°25'0 0.0
2016-Jul-23 16:31N 34°38' E 135°25'0 0.0
2016-Jul-23 15:31N 34°38' E 135°25'0 0.0
2016-Jul-23 14:31N 34°38' E 135°25'0 0.0
2016-Jul-23 13:31N 34°38' E 135°25'0 0.0
2016-Jul-23 12:13N 34°38' E 135°25'0 0.0
2016-Jul-23 11:31N 34°38' E 135°25'0 0.0
2016-Jul-23 10:31N 34°38' E 135°25'0 0.0
2016-Jul-23 09:31N 34°38' E 135°25'0 0.0
2016-Jul-23 08:25N 34°38' E 135°25'0 0.0
2016-Jul-23 07:31N 34°38' E 135°25'0 0.0
2016-Jul-23 06:30N 34°38' E 135°25'0 0.0
2016-Jul-23 04:30N 34°38' E 135°25'0 0.0
2016-Jul-23 03:30N 34°38' E 135°25'0 0.0
2016-Jul-23 02:30N 34°38' E 135°25'0 0.0
2016-Jul-23 01:18N 34°38' E 135°25'0 0.0
2016-Jul-23 00:30N 34°38' E 135°25'0 0.0
2016-Jul-22 23:30N 34°38' E 135°25'0 0.0
2016-Jul-22 22:30N 34°38' E 135°25'2 2.0
2016-Jul-22 21:30N 34°37' E 135°23'0 0.1
2016-Jul-22 20:30N 34°37' E 135°23'0 0.0
2016-Jul-22 19:06N 34°37' E 135°23'0 0.0
2016-Jul-22 18:18N 34°37' E 135°23'0 0.0
2016-Jul-22 17:24N 34°37' E 135°23'0 0.0
2016-Jul-22 16:12N 34°37' E 135°23'0 0.0
2016-Jul-22 15:30N 34°37' E 135°23'0 0.0
2016-Jul-22 14:30N 34°37' E 135°23'6 5.8
2016-Jul-22 13:33N 34°36' E 135°16'1212.1
2016-Jul-22 12:33N 34°37' E 135°02'  
2016-Jul-17 13:32N 22°45' E 120°09'1111.6
2016-Jul-17 12:33N 22°37' E 120°17'0 0.1
2016-Jul-17 11:29N 22°37' E 120°17'0 0.0
2016-Jul-17 10:29N 22°37' E 120°17'0 0.0
2016-Jul-17 09:23N 22°37' E 120°17'0 0.0
2016-Jul-17 08:26N 22°37' E 120°17'0 0.0
2016-Jul-17 07:26N 22°37' E 120°17'0 0.0
2016-Jul-17 06:32N 22°37' E 120°17'0 0.0
2016-Jul-17 04:32N 22°37' E 120°17'0 0.0
2016-Jul-17 03:26N 22°37' E 120°17'0 0.0
2016-Jul-17 02:32N 22°37' E 120°17'0 0.0
2016-Jul-17 01:32N 22°37' E 120°17'1 1.3
2016-Jul-17 00:33N 22°37' E 120°16'1111.3
2016-Jul-16 23:33N 22°45' E 120°07'  

Dump ship's entire track history